Time;durP1;ratioP1;P1;durP2;ratioP2;P2;SDS_P1;SDS_P2;PMS_P1;PMS_P2;Temp;Humidity;BMP_temperature;BMP_pressure;BME280_temperature;BME280_humidity;BME280_pressure;Samples;Min_cycle;Max_cycle;Signal;HPM_P1;HPM_P2
2023/01/06 00:00:22;;;;;;;4.90;1.65;;;;;;;;;;5032729;28;20423;-74
2023/01/06 00:02:48;;;;;;;3.33;1.83;;;;;;;;;;5029918;28;20080;-74
2023/01/06 00:05:14;;;;;;;3.25;1.80;;;;;;;;;;5031133;28;20124;-73
2023/01/06 00:07:40;;;;;;;2.63;1.60;;;;;;;;;;5030023;28;20076;-74
2023/01/06 00:10:07;;;;;;;4.03;1.83;;;;;;;;;;5030239;28;20388;-74
2023/01/06 00:12:33;;;;;;;2.80;1.35;;;;;;;;;;5027500;28;20116;-73
2023/01/06 00:14:59;;;;;;;3.08;1.90;;;;;;;;;;5027819;28;20033;-73
2023/01/06 00:17:25;;;;;;;2.30;1.40;;;;;;;;;;5034193;28;20032;-73
2023/01/06 00:19:51;;;;;;;2.45;1.50;;;;;;;;;;5028278;28;20456;-74
2023/01/06 00:22:17;;;;;;;2.33;1.40;;;;;;;;;;5030707;28;20434;-74
2023/01/06 00:24:43;;;;;;;4.35;1.90;;;;;;;;;;5031532;28;20086;-74
2023/01/06 00:27:09;;;;;;;3.47;1.70;;;;;;;;;;5027749;28;20029;-74
2023/01/06 00:29:35;;;;;;;3.78;1.70;;;;;;;;;;5027984;28;20025;-73
2023/01/06 00:32:02;;;;;;;3.05;1.75;;;;;;;;;;5027631;28;20095;-73
2023/01/06 00:34:28;;;;;;;2.83;1.52;;;;;;;;;;5028499;28;20060;-74
2023/01/06 00:36:54;;;;;;;4.28;1.50;;;;;;;;;;5028150;28;20033;-74
2023/01/06 00:39:21;;;;;;;2.50;1.50;;;;;;;;;;5027277;28;20457;-74
2023/01/06 00:42:05;;;;;;;3.15;1.52;;;;;;;;;;5026493;28;20037;-74
2023/01/06 00:44:32;;;;;;;1.95;1.48;;;;;;;;;;5030139;28;20108;-74
2023/01/06 00:46:58;;;;;;;2.47;1.50;;;;;;;;;;5032576;28;20628;-74
2023/01/06 00:49:24;;;;;;;2.28;1.30;;;;;;;;;;5034646;28;20412;-74
2023/01/06 00:51:50;;;;;;;2.90;1.50;;;;;;;;;;5029214;28;20034;-74
2023/01/06 00:54:19;;;;;;;4.05;1.75;;;;;;;;;;5027426;28;20091;-73
2023/01/06 00:56:46;;;;;;;1.48;1.38;;;;;;;;;;5029332;28;20515;-73
2023/01/06 00:59:16;;;;;;;2.55;1.70;;;;;;;;;;5027002;28;20041;-74
2023/01/06 01:01:43;;;;;;;2.85;1.33;;;;;;;;;;5028320;28;20033;-74
2023/01/06 01:04:09;;;;;;;3.33;1.33;;;;;;;;;;5029285;28;20029;-74
2023/01/06 01:06:39;;;;;;;3.20;1.52;;;;;;;;;;5029126;28;20021;-74
2023/01/06 01:09:13;;;;;;;2.20;1.10;;;;;;;;;;5026562;28;20022;-74
2023/01/06 01:14:27;;;;;;;2.67;1.35;;;;;;;;;;5026501;28;20040;-74
2023/01/06 01:16:53;;;;;;;2.30;1.30;;;;;;;;;;5029489;28;20025;-74
2023/01/06 01:19:22;;;;;;;2.25;1.38;;;;;;;;;;5028101;28;20021;-74
2023/01/06 01:21:48;;;;;;;2.85;1.30;;;;;;;;;;5027632;28;20037;-73
2023/01/06 01:24:15;;;;;;;3.20;1.25;;;;;;;;;;5029072;28;20393;-72
2023/01/06 01:26:41;;;;;;;3.05;1.20;;;;;;;;;;5028287;28;20040;-74
2023/01/06 01:29:07;;;;;;;3.15;1.88;;;;;;;;;;5027247;28;20041;-74
2023/01/06 01:31:33;;;;;;;1.20;1.08;;;;;;;;;;5026093;28;20025;-74
2023/01/06 01:34:00;;;;;;;2.60;1.50;;;;;;;;;;5026372;28;20404;-75
2023/01/06 01:36:26;;;;;;;3.47;1.38;;;;;;;;;;5026047;28;20179;-74
2023/01/06 01:38:52;;;;;;;2.63;1.15;;;;;;;;;;5026863;28;20384;-74
2023/01/06 01:41:20;;;;;;;2.95;1.10;;;;;;;;;;5029689;28;20025;-74
2023/01/06 01:43:51;;;;;;;2.13;1.15;;;;;;;;;;5027795;28;20109;-74
2023/01/06 01:46:19;;;;;;;2.78;1.20;;;;;;;;;;5027533;28;20022;-74
2023/01/06 01:48:45;;;;;;;2.65;1.15;;;;;;;;;;5027422;28;20038;-74
2023/01/06 01:51:13;;;;;;;3.08;1.27;;;;;;;;;;5027653;28;20025;-74
2023/01/06 01:54:01;;;;;;;2.00;1.23;;;;;;;;;;5029132;28;20029;-74
2023/01/06 01:56:31;;;;;;;2.25;1.30;;;;;;;;;;5025438;28;20025;-74
2023/01/06 01:59:06;;;;;;;1.42;1.20;;;;;;;;;;5029528;28;20034;-74
2023/01/06 02:01:35;;;;;;;2.08;1.00;;;;;;;;;;5021944;28;20021;-74
2023/01/06 02:04:02;;;;;;;1.73;1.20;;;;;;;;;;5027449;28;20172;-74
2023/01/06 02:06:29;;;;;;;3.40;1.20;;;;;;;;;;5027595;28;20033;-74
2023/01/06 02:09:00;;;;;;;1.77;1.35;;;;;;;;;;5026171;28;20033;-75
2023/01/06 02:11:26;;;;;;;1.80;1.30;;;;;;;;;;5030090;28;20029;-75
2023/01/06 02:14:08;;;;;;;1.42;0.90;;;;;;;;;;5022625;28;20065;-74
2023/01/06 02:16:56;;;;;;;2.40;1.17;;;;;;;;;;5025248;28;20040;-74
2023/01/06 02:19:42;;;;;;;1.70;1.20;;;;;;;;;;5027310;28;20034;-73
2023/01/06 02:22:14;;;;;;;1.13;0.98;;;;;;;;;;5027216;28;20029;-74
2023/01/06 02:24:59;;;;;;;1.42;1.20;;;;;;;;;;5025872;28;20048;-74
2023/01/06 02:27:33;;;;;;;1.95;1.40;;;;;;;;;;5030720;28;20040;-74
2023/01/06 02:30:11;;;;;;;2.50;1.15;;;;;;;;;;5026126;28;20499;-74
2023/01/06 02:32:56;;;;;;;2.88;1.33;;;;;;;;;;5018857;28;20480;-74
2023/01/06 02:35:40;;;;;;;2.70;1.10;;;;;;;;;;5024643;28;20504;-75
2023/01/06 02:38:18;;;;;;;1.73;1.00;;;;;;;;;;5025182;28;20044;-74
2023/01/06 02:40:47;;;;;;;6.88;1.08;;;;;;;;;;5020163;28;20352;-74
2023/01/06 02:43:32;;;;;;;1.70;1.05;;;;;;;;;;5027311;28;20044;-74
2023/01/06 02:46:08;;;;;;;1.88;1.17;;;;;;;;;;5025907;28;20107;-74
2023/01/06 02:48:53;;;;;;;1.23;1.13;;;;;;;;;;5021399;28;20036;-74
2023/01/06 02:51:29;;;;;;;1.63;1.10;;;;;;;;;;5026092;28;20032;-74
2023/01/06 02:54:04;;;;;;;2.83;1.10;;;;;;;;;;5023425;28;20082;-74
2023/01/06 02:56:32;;;;;;;1.10;1.00;;;;;;;;;;5024759;28;20086;-74
2023/01/06 02:59:21;;;;;;;0.93;0.82;;;;;;;;;;5026956;28;20460;-74
2023/01/06 03:01:51;;;;;;;1.55;0.90;;;;;;;;;;5007093;28;20447;-74
2023/01/06 03:04:20;;;;;;;1.50;0.87;;;;;;;;;;5027858;28;20489;-75
2023/01/06 03:06:47;;;;;;;1.73;0.85;;;;;;;;;;5024600;28;20287;-73
2023/01/06 03:09:15;;;;;;;2.55;1.00;;;;;;;;;;5033309;28;20041;-73
2023/01/06 03:11:42;;;;;;;1.33;1.00;;;;;;;;;;5023177;28;20025;-74
2023/01/06 03:14:13;;;;;;;2.15;1.17;;;;;;;;;;5026188;28;20065;-73
2023/01/06 03:16:39;;;;;;;2.00;1.30;;;;;;;;;;5021219;28;20048;-74
2023/01/06 03:19:05;;;;;;;1.38;0.93;;;;;;;;;;5024859;28;20030;-74
2023/01/06 03:21:33;;;;;;;2.15;1.00;;;;;;;;;;5026461;28;20022;-74
2023/01/06 03:23:59;;;;;;;2.45;1.10;;;;;;;;;;5027232;28;20543;-74
2023/01/06 03:26:26;;;;;;;1.35;0.90;;;;;;;;;;5034811;28;20026;-73
2023/01/06 03:28:51;;;;;;;1.80;1.00;;;;;;;;;;5026819;28;20048;-74
2023/01/06 03:31:27;;;;;;;1.92;1.15;;;;;;;;;;5019636;28;20741;-74
2023/01/06 03:34:02;;;;;;;1.20;0.90;;;;;;;;;;5033767;28;20242;-73
2023/01/06 03:36:30;;;;;;;1.00;0.82;;;;;;;;;;5029497;28;20046;-73
2023/01/06 03:39:02;;;;;;;1.10;0.93;;;;;;;;;;5028279;28;20152;-74
2023/01/06 03:44:29;;;;;;;1.08;0.90;;;;;;;;;;5025171;28;20040;-73
2023/01/06 03:47:03;;;;;;;2.30;0.93;;;;;;;;;;5027559;28;20040;-73
2023/01/06 03:49:31;;;;;;;1.35;1.05;;;;;;;;;;5030605;28;20104;-74
2023/01/06 03:52:00;;;;;;;0.65;0.60;;;;;;;;;;5024277;28;20453;-73
2023/01/06 03:54:37;;;;;;;0.90;0.70;;;;;;;;;;5027566;28;20293;-73
2023/01/06 03:57:07;;;;;;;0.90;0.63;;;;;;;;;;5024178;28;20033;-73
2023/01/06 03:59:42;;;;;;;1.45;0.60;;;;;;;;;;5021239;28;20025;-73
2023/01/06 04:02:12;;;;;;;1.33;0.73;;;;;;;;;;5028908;28;20280;-74
2023/01/06 04:04:38;;;;;;;0.90;0.77;;;;;;;;;;5030985;28;20098;-73
2023/01/06 04:07:04;;;;;;;2.70;0.95;;;;;;;;;;5032236;28;20025;-74
2023/01/06 04:09:30;;;;;;;1.25;0.90;;;;;;;;;;5032044;28;20029;-74
2023/01/06 04:14:41;;;;;;;1.45;0.80;;;;;;;;;;5029962;28;20187;-74
2023/01/06 04:17:09;;;;;;;1.15;0.75;;;;;;;;;;5029546;28;20026;-74
2023/01/06 04:19:38;;;;;;;1.02;0.55;;;;;;;;;;5030978;28;20048;-74
2023/01/06 04:22:04;;;;;;;1.63;1.02;;;;;;;;;;5028053;28;20087;-74
2023/01/06 04:24:30;;;;;;;1.05;0.77;;;;;;;;;;5031419;28;20029;-74
2023/01/06 04:26:56;;;;;;;1.00;0.90;;;;;;;;;;5025883;28;20014;-75
2023/01/06 04:29:22;;;;;;;1.52;0.68;;;;;;;;;;5030661;28;20041;-74
2023/01/06 04:31:48;;;;;;;0.90;0.70;;;;;;;;;;5027627;28;20533;-74
2023/01/06 04:34:14;;;;;;;0.70;0.70;;;;;;;;;;5025621;28;20045;-74
2023/01/06 04:36:40;;;;;;;1.45;0.90;;;;;;;;;;5028825;28;20014;-75
2023/01/06 04:39:06;;;;;;;1.13;0.75;;;;;;;;;;5032208;28;20025;-73
2023/01/06 04:41:33;;;;;;;2.00;0.60;;;;;;;;;;5028888;28;20129;-73
2023/01/06 04:43:59;;;;;;;1.35;0.73;;;;;;;;;;5027773;28;20079;-73
2023/01/06 04:46:27;;;;;;;1.63;1.00;;;;;;;;;;5031383;28;20029;-74
2023/01/06 04:48:56;;;;;;;1.58;0.80;;;;;;;;;;5029750;28;20072;-73
2023/01/06 04:51:22;;;;;;;1.00;0.77;;;;;;;;;;5030824;28;20061;-73
2023/01/06 04:53:48;;;;;;;0.70;0.60;;;;;;;;;;5027588;28;20041;-73
2023/01/06 04:56:15;;;;;;;0.93;0.70;;;;;;;;;;5036998;28;20055;-73
2023/01/06 04:58:44;;;;;;;0.50;0.50;;;;;;;;;;5029782;28;20018;-73
2023/01/06 05:01:11;;;;;;;0.60;0.60;;;;;;;;;;5030221;28;20051;-73
2023/01/06 05:03:38;;;;;;;1.60;0.70;;;;;;;;;;5028524;28;20037;-74
2023/01/06 05:06:08;;;;;;;0.65;0.55;;;;;;;;;;5027308;28;20523;-75
2023/01/06 05:08:34;;;;;;;3.90;0.75;;;;;;;;;;5025960;28;20034;-74
2023/01/06 05:11:01;;;;;;;1.77;0.90;;;;;;;;;;5030314;28;20499;-75
2023/01/06 05:13:27;;;;;;;1.58;0.70;;;;;;;;;;5028570;28;20037;-74
2023/01/06 05:15:53;;;;;;;0.90;0.60;;;;;;;;;;5030364;28;20380;-75
2023/01/06 05:18:19;;;;;;;0.73;0.70;;;;;;;;;;5029329;28;20022;-74
2023/01/06 05:20:48;;;;;;;1.02;0.93;;;;;;;;;;5030199;28;20022;-74
2023/01/06 05:23:14;;;;;;;1.00;0.80;;;;;;;;;;5024822;28;20048;-74
2023/01/06 05:25:40;;;;;;;1.10;0.70;;;;;;;;;;5027996;28;20029;-75
2023/01/06 05:28:06;;;;;;;1.02;0.80;;;;;;;;;;5026559;28;20091;-74
2023/01/06 05:30:32;;;;;;;1.65;0.88;;;;;;;;;;5027252;28;20044;-75
2023/01/06 05:32:57;;;;;;;0.95;0.80;;;;;;;;;;5028897;28;20076;-71
2023/01/06 05:35:23;;;;;;;0.85;0.60;;;;;;;;;;5025851;28;20054;-73
2023/01/06 05:37:49;;;;;;;1.63;0.60;;;;;;;;;;5029821;28;20030;-73
2023/01/06 05:40:15;;;;;;;1.50;0.70;;;;;;;;;;5027593;28;20018;-74
2023/01/06 05:42:44;;;;;;;1.60;0.90;;;;;;;;;;5027182;28;20537;-75
2023/01/06 05:45:10;;;;;;;0.75;0.60;;;;;;;;;;5034002;28;20470;-73
2023/01/06 05:47:36;;;;;;;1.60;0.70;;;;;;;;;;5029717;28;20693;-73
2023/01/06 05:50:02;;;;;;;2.80;1.00;;;;;;;;;;5029856;28;20025;-73
2023/01/06 05:52:28;;;;;;;1.40;0.73;;;;;;;;;;5028314;28;21717;-74
2023/01/06 05:54:54;;;;;;;1.85;1.00;;;;;;;;;;5029273;28;20084;-73
2023/01/06 05:57:20;;;;;;;2.70;1.23;;;;;;;;;;5027908;28;20048;-73
2023/01/06 05:59:46;;;;;;;1.83;0.93;;;;;;;;;;5026009;28;20451;-73
2023/01/06 06:02:12;;;;;;;2.00;1.13;;;;;;;;;;5041299;28;20031;-74
2023/01/06 06:04:38;;;;;;;3.17;1.02;;;;;;;;;;5026299;28;20021;-74
2023/01/06 06:07:04;;;;;;;3.22;1.00;;;;;;;;;;5029010;28;20026;-73
2023/01/06 06:09:30;;;;;;;1.88;1.40;;;;;;;;;;5022501;28;20025;-73
2023/01/06 06:11:56;;;;;;;1.73;1.23;;;;;;;;;;5027529;28;20116;-73
2023/01/06 06:14:22;;;;;;;1.77;1.15;;;;;;;;;;5027588;28;20568;-73
2023/01/06 06:16:48;;;;;;;3.35;1.60;;;;;;;;;;5028665;28;20017;-73
2023/01/06 06:19:14;;;;;;;1.45;1.10;;;;;;;;;;5038164;28;20025;-74
2023/01/06 06:21:40;;;;;;;1.10;1.00;;;;;;;;;;5027895;28;20045;-73
2023/01/06 06:24:06;;;;;;;1.70;1.10;;;;;;;;;;5028698;28;20032;-72
2023/01/06 06:26:32;;;;;;;2.53;0.98;;;;;;;;;;5027393;28;20115;-73
2023/01/06 06:28:58;;;;;;;3.15;1.23;;;;;;;;;;5029165;28;20376;-73
2023/01/06 06:31:25;;;;;;;3.08;1.08;;;;;;;;;;5027404;28;20025;-73
2023/01/06 06:33:55;;;;;;;1.55;0.90;;;;;;;;;;5027263;28;20063;-72
2023/01/06 06:36:21;;;;;;;1.45;1.00;;;;;;;;;;5026570;28;20106;-73
2023/01/06 06:38:48;;;;;;;3.40;1.02;;;;;;;;;;5028798;28;20507;-73
2023/01/06 06:41:14;;;;;;;1.38;0.95;;;;;;;;;;5027473;28;20644;-73
2023/01/06 06:43:40;;;;;;;2.72;0.70;;;;;;;;;;5028054;28;20067;-73
2023/01/06 06:46:06;;;;;;;1.67;1.30;;;;;;;;;;5026009;28;20403;-74
2023/01/06 06:48:32;;;;;;;2.60;0.98;;;;;;;;;;5027520;28;20109;-75
2023/01/06 06:51:08;;;;;;;1.45;0.88;;;;;;;;;;5028415;28;20480;-73
2023/01/06 06:53:34;;;;;;;1.30;0.90;;;;;;;;;;5027532;28;20037;-74
2023/01/06 06:56:01;;;;;;;1.13;0.77;;;;;;;;;;5025314;28;20457;-73
2023/01/06 06:58:27;;;;;;;2.17;1.08;;;;;;;;;;5027858;28;20026;-73
2023/01/06 07:00:53;;;;;;;0.90;0.82;;;;;;;;;;5027493;28;20025;-73
2023/01/06 07:03:19;;;;;;;0.85;0.80;;;;;;;;;;5026504;28;20267;-73
2023/01/06 07:05:45;;;;;;;1.60;0.80;;;;;;;;;;5029263;28;20056;-74
2023/01/06 07:08:12;;;;;;;1.10;0.88;;;;;;;;;;5029703;28;20060;-73
2023/01/06 07:10:38;;;;;;;2.50;1.13;;;;;;;;;;5023547;28;20041;-74
2023/01/06 07:13:04;;;;;;;1.00;0.80;;;;;;;;;;5033065;28;20025;-73
2023/01/06 07:15:30;;;;;;;0.80;0.80;;;;;;;;;;5029762;28;20029;-73
2023/01/06 07:18:00;;;;;;;1.75;0.98;;;;;;;;;;5031513;28;20483;-73
2023/01/06 07:20:26;;;;;;;0.65;0.65;;;;;;;;;;5027078;28;20327;-73
2023/01/06 07:22:52;;;;;;;1.55;0.85;;;;;;;;;;5025821;28;20467;-74
2023/01/06 07:25:18;;;;;;;1.90;0.98;;;;;;;;;;5030881;28;20127;-74
2023/01/06 07:27:44;;;;;;;2.70;0.90;;;;;;;;;;5027348;28;20033;-74
2023/01/06 07:30:10;;;;;;;2.42;0.93;;;;;;;;;;5038989;28;20033;-76
2023/01/06 07:32:36;;;;;;;1.00;0.90;;;;;;;;;;5031161;28;20502;-76
2023/01/06 07:35:02;;;;;;;0.60;0.60;;;;;;;;;;5031938;28;20045;-76
2023/01/06 07:37:28;;;;;;;1.02;0.85;;;;;;;;;;5043099;28;20029;-76
2023/01/06 07:39:53;;;;;;;1.13;0.80;;;;;;;;;;5027121;28;20124;-74
2023/01/06 07:42:20;;;;;;;2.05;1.05;;;;;;;;;;5032526;28;20518;-74
2023/01/06 07:44:46;;;;;;;1.45;0.70;;;;;;;;;;5031089;28;20655;-74
2023/01/06 07:47:13;;;;;;;0.93;0.80;;;;;;;;;;5033082;28;20024;-75
2023/01/06 07:49:38;;;;;;;1.30;0.90;;;;;;;;;;5029699;28;20471;-73
2023/01/06 07:52:05;;;;;;;1.38;0.80;;;;;;;;;;5029583;28;20131;-73
2023/01/06 07:54:31;;;;;;;1.05;0.73;;;;;;;;;;5035797;28;20131;-75
2023/01/06 07:56:56;;;;;;;1.52;0.90;;;;;;;;;;5040142;28;20033;-75
2023/01/06 07:59:22;;;;;;;0.82;0.80;;;;;;;;;;5033107;28;20506;-74
2023/01/06 08:01:48;;;;;;;0.93;0.70;;;;;;;;;;5033965;28;20152;-75
2023/01/06 08:04:14;;;;;;;1.33;0.73;;;;;;;;;;5030144;28;20026;-73
2023/01/06 08:06:40;;;;;;;0.85;0.75;;;;;;;;;;5029006;28;20025;-74
2023/01/06 08:09:07;;;;;;;0.70;0.70;;;;;;;;;;5028019;28;20032;-73
2023/01/06 08:11:33;;;;;;;1.67;1.17;;;;;;;;;;5026539;28;20026;-73
2023/01/06 08:13:58;;;;;;;0.85;0.70;;;;;;;;;;5025742;28;20481;-74
2023/01/06 08:16:24;;;;;;;1.60;1.05;;;;;;;;;;5030060;28;20763;-73
2023/01/06 08:18:50;;;;;;;1.55;0.80;;;;;;;;;;5028781;28;20056;-74
2023/01/06 08:21:16;;;;;;;1.20;0.88;;;;;;;;;;5031466;28;20465;-73
2023/01/06 08:23:42;;;;;;;2.00;1.08;;;;;;;;;;5029106;28;20111;-75
2023/01/06 08:26:12;;;;;;;1.20;0.77;;;;;;;;;;5029715;28;20117;-73
2023/01/06 08:28:38;;;;;;;1.20;0.88;;;;;;;;;;5033205;28;20036;-74
2023/01/06 08:31:04;;;;;;;1.42;1.10;;;;;;;;;;5027520;28;20033;-73
2023/01/06 08:33:33;;;;;;;2.00;0.90;;;;;;;;;;5041726;28;20029;-75
2023/01/06 08:35:59;;;;;;;1.05;1.02;;;;;;;;;;5037078;28;20040;-73
2023/01/06 08:38:25;;;;;;;1.38;1.10;;;;;;;;;;5031053;28;20113;-74
2023/01/06 08:40:52;;;;;;;2.15;0.70;;;;;;;;;;5031695;28;20112;-74
2023/01/06 08:43:18;;;;;;;1.00;0.85;;;;;;;;;;5030761;28;20021;-75
2023/01/06 08:45:44;;;;;;;3.10;1.13;;;;;;;;;;5040784;28;20049;-74
2023/01/06 08:48:10;;;;;;;1.13;0.88;;;;;;;;;;5028743;28;20535;-74
2023/01/06 08:50:38;;;;;;;1.52;0.80;;;;;;;;;;5032747;28;20111;-74
2023/01/06 08:53:04;;;;;;;2.22;1.10;;;;;;;;;;5033260;28;20033;-75
2023/01/06 08:55:30;;;;;;;2.13;1.10;;;;;;;;;;5037028;28;20381;-76
2023/01/06 08:57:55;;;;;;;1.90;0.95;;;;;;;;;;5035990;28;20041;-76
2023/01/06 09:00:21;;;;;;;1.13;1.00;;;;;;;;;;5028066;28;20021;-77
2023/01/06 09:02:47;;;;;;;0.88;0.80;;;;;;;;;;5026226;28;20136;-76
2023/01/06 09:05:14;;;;;;;1.30;0.82;;;;;;;;;;5031176;28;20025;-76
2023/01/06 09:07:40;;;;;;;0.93;0.75;;;;;;;;;;5031435;28;20068;-77
2023/01/06 09:10:06;;;;;;;1.45;0.90;;;;;;;;;;5031193;28;20033;-76
2023/01/06 09:12:33;;;;;;;1.20;0.80;;;;;;;;;;5029533;28;20121;-77
2023/01/06 09:14:59;;;;;;;1.80;1.13;;;;;;;;;;5030297;28;20025;-76
2023/01/06 09:17:25;;;;;;;5.07;1.10;;;;;;;;;;5031327;28;20503;-76
2023/01/06 09:19:51;;;;;;;1.20;0.85;;;;;;;;;;5029353;28;20025;-76
2023/01/06 09:22:17;;;;;;;1.10;0.90;;;;;;;;;;5029417;28;20017;-76
2023/01/06 09:24:42;;;;;;;0.63;0.63;;;;;;;;;;5034331;28;20033;-77
2023/01/06 09:27:08;;;;;;;1.80;0.90;;;;;;;;;;5030659;28;20029;-76
2023/01/06 09:29:34;;;;;;;1.83;1.00;;;;;;;;;;5030478;28;20021;-76
2023/01/06 09:32:02;;;;;;;2.38;1.10;;;;;;;;;;5032158;28;20034;-76
2023/01/06 09:34:28;;;;;;;2.50;1.00;;;;;;;;;;5030699;28;20050;-76
2023/01/06 09:36:54;;;;;;;1.75;1.20;;;;;;;;;;5029227;28;20045;-77
2023/01/06 09:39:30;;;;;;;1.65;0.93;;;;;;;;;;5037386;28;20032;-76
2023/01/06 09:42:02;;;;;;;2.55;1.17;;;;;;;;;;5036042;28;20057;-76
2023/01/06 09:44:30;;;;;;;1.10;0.80;;;;;;;;;;5030550;28;20486;-76
2023/01/06 09:46:57;;;;;;;0.80;0.77;;;;;;;;;;5030592;28;20022;-76
2023/01/06 09:49:43;;;;;;;2.33;0.98;;;;;;;;;;5029984;28;20037;-76
2023/01/06 09:52:23;;;;;;;1.92;1.13;;;;;;;;;;5028929;28;20178;-76
2023/01/06 09:54:54;;;;;;;0.70;0.70;;;;;;;;;;5030154;28;20045;-76
2023/01/06 09:57:30;;;;;;;1.63;1.10;;;;;;;;;;5035004;28;20476;-76
2023/01/06 09:59:58;;;;;;;1.17;1.00;;;;;;;;;;5045981;28;21438;-77
2023/01/06 10:02:27;;;;;;;1.90;0.88;;;;;;;;;;5043054;28;20036;-77
2023/01/06 10:04:53;;;;;;;1.05;0.95;;;;;;;;;;5029827;28;20037;-77
2023/01/06 10:07:25;;;;;;;1.38;1.10;;;;;;;;;;5029906;28;20017;-77
2023/01/06 10:10:10;;;;;;;1.55;1.45;;;;;;;;;;5030255;28;20112;-77
2023/01/06 10:12:54;;;;;;;1.33;1.10;;;;;;;;;;5035160;28;20435;-76
2023/01/06 10:15:23;;;;;;;1.92;0.98;;;;;;;;;;5029795;28;20032;-76
2023/01/06 10:17:55;;;;;;;2.05;1.10;;;;;;;;;;5030014;28;20018;-76
2023/01/06 10:20:29;;;;;;;1.67;0.88;;;;;;;;;;5037046;28;20107;-76
2023/01/06 10:23:22;;;;;;;0.88;0.70;;;;;;;;;;5033071;28;20033;-76
2023/01/06 10:25:55;;;;;;;0.90;0.88;;;;;;;;;;5030091;28;20029;-76
2023/01/06 10:28:38;;;;;;;1.13;0.90;;;;;;;;;;5029617;28;20110;-76
2023/01/06 10:31:06;;;;;;;1.00;0.90;;;;;;;;;;5028100;28;20053;-77
2023/01/06 10:33:34;;;;;;;1.40;1.00;;;;;;;;;;5039281;28;20104;-76
2023/01/06 10:36:00;;;;;;;1.10;1.00;;;;;;;;;;5029232;28;20041;-76
2023/01/06 10:38:29;;;;;;;1.38;1.10;;;;;;;;;;5028596;28;20111;-76
2023/01/06 10:41:00;;;;;;;1.33;1.23;;;;;;;;;;5029747;28;20108;-76
2023/01/06 10:43:26;;;;;;;2.10;0.88;;;;;;;;;;5029719;28;20034;-77
2023/01/06 10:45:53;;;;;;;1.23;0.90;;;;;;;;;;5029633;28;20104;-77
2023/01/06 10:48:20;;;;;;;1.30;1.17;;;;;;;;;;5029791;28;20392;-77
2023/01/06 10:50:46;;;;;;;1.95;0.90;;;;;;;;;;5030051;28;20045;-77
2023/01/06 10:53:13;;;;;;;1.83;1.10;;;;;;;;;;5031595;28;20087;-80
2023/01/06 10:55:59;;;;;;;1.20;0.95;;;;;;;;;;5029232;28;20048;-81
2023/01/06 10:58:30;;;;;;;1.88;1.10;;;;;;;;;;5029179;28;20381;-81
2023/01/06 11:00:56;;;;;;;;;;;;;;;;;;5029387;28;20033;-80
2023/01/06 11:03:22;;;;;;;2.15;1.00;;;;;;;;;;5029878;28;20010;-81
2023/01/06 11:05:58;;;;;;;1.45;0.90;;;;;;;;;;5027810;28;20036;-80
2023/01/06 11:08:24;;;;;;;1.20;0.95;;;;;;;;;;5028120;28;20021;-80
2023/01/06 11:10:50;;;;;;;1.98;1.05;;;;;;;;;;5027525;28;20088;-81
2023/01/06 11:13:33;;;;;;;1.10;0.82;;;;;;;;;;5033190;28;20109;-80
2023/01/06 11:16:01;;;;;;;1.30;1.08;;;;;;;;;;5022512;28;20476;-81
2023/01/06 11:18:28;;;;;;;1.42;0.63;;;;;;;;;;5033924;28;20103;-80
2023/01/06 11:21:02;;;;;;;1.67;1.05;;;;;;;;;;5028402;28;20032;-81
2023/01/06 11:23:28;;;;;;;2.38;0.90;;;;;;;;;;5028289;28;20048;-81
2023/01/06 11:26:01;;;;;;;2.03;0.95;;;;;;;;;;5027899;28;20374;-81
2023/01/06 11:28:27;;;;;;;0.80;0.80;;;;;;;;;;5028601;28;20053;-81
2023/01/06 11:30:54;;;;;;;1.65;1.17;;;;;;;;;;5028261;28;20120;-81
2023/01/06 11:33:22;;;;;;;1.00;0.90;;;;;;;;;;5033171;28;20738;-81
2023/01/06 11:35:48;;;;;;;1.20;0.82;;;;;;;;;;5033714;28;20404;-81
2023/01/06 11:38:16;;;;;;;1.52;0.77;;;;;;;;;;5027848;28;20431;-81
2023/01/06 11:40:51;;;;;;;1.83;0.98;;;;;;;;;;5028172;28;20029;-81
2023/01/06 11:43:22;;;;;;;0.98;0.90;;;;;;;;;;5027985;28;20043;-81
2023/01/06 11:46:02;;;;;;;2.47;1.00;;;;;;;;;;5026829;28;20406;-81
2023/01/06 11:48:30;;;;;;;1.50;1.00;;;;;;;;;;5028346;28;20041;-81
2023/01/06 11:50:57;;;;;;;0.90;0.85;;;;;;;;;;5027672;28;20030;-81
2023/01/06 11:53:23;;;;;;;3.40;1.05;;;;;;;;;;5031056;28;20048;-80
2023/01/06 11:56:01;;;;;;;1.00;0.93;;;;;;;;;;5027705;28;20223;-80
2023/01/06 11:58:51;;;;;;;1.67;1.10;;;;;;;;;;5027622;28;20532;-80
2023/01/06 12:01:23;;;;;;;1.02;0.95;;;;;;;;;;5026972;28;20739;-80
2023/01/06 12:03:51;;;;;;;1.00;0.90;;;;;;;;;;5031912;28;20041;-80
2023/01/06 12:06:29;;;;;;;2.13;1.45;;;;;;;;;;5041560;28;20033;-80
2023/01/06 12:09:01;;;;;;;4.15;0.90;;;;;;;;;;5027571;28;20366;-80
2023/01/06 12:11:32;;;;;;;1.00;0.88;;;;;;;;;;5027783;28;20028;-80
2023/01/06 12:13:58;;;;;;;1.25;0.93;;;;;;;;;;5027742;28;20057;-80
2023/01/06 12:16:41;;;;;;;1.40;1.10;;;;;;;;;;5026917;28;20064;-80
2023/01/06 12:19:14;;;;;;;1.35;1.02;;;;;;;;;;5029764;28;20113;-80
2023/01/06 12:21:41;;;;;;;0.85;0.65;;;;;;;;;;5031230;28;20026;-80
2023/01/06 12:24:09;;;;;;;2.45;0.88;;;;;;;;;;5030968;28;20391;-80
2023/01/06 12:26:36;;;;;;;1.75;1.05;;;;;;;;;;5029870;28;20029;-79
2023/01/06 12:29:04;;;;;;;1.00;0.70;;;;;;;;;;5037789;28;20029;-80
2023/01/06 12:31:40;;;;;;;1.17;0.73;;;;;;;;;;5030951;28;20476;-80
2023/01/06 12:34:18;;;;;;;3.25;0.88;;;;;;;;;;5031177;28;20029;-81
2023/01/06 12:36:49;;;;;;;0.90;0.90;;;;;;;;;;5029201;28;20038;-80
2023/01/06 12:39:18;;;;;;;2.33;1.05;;;;;;;;;;5031880;28;20060;-81
2023/01/06 12:41:49;;;;;;;0.80;0.77;;;;;;;;;;5030873;28;20029;-80
2023/01/06 12:44:21;;;;;;;1.13;0.70;;;;;;;;;;5031229;28;20415;-81
2023/01/06 12:47:06;;;;;;;0.70;0.70;;;;;;;;;;5042519;28;20770;-81
2023/01/06 12:49:37;;;;;;;1.52;0.80;;;;;;;;;;5038738;28;20021;-81
2023/01/06 12:52:06;;;;;;;0.70;0.70;;;;;;;;;;5031160;28;20484;-81
2023/01/06 12:54:36;;;;;;;1.08;0.80;;;;;;;;;;5030244;28;20400;-81
2023/01/06 12:57:14;;;;;;;1.20;1.00;;;;;;;;;;5029323;28;20127;-81
2023/01/06 12:59:45;;;;;;;0.85;0.85;;;;;;;;;;5036907;28;20389;-81
2023/01/06 13:02:30;;;;;;;1.27;1.00;;;;;;;;;;5031576;28;20480;-81
2023/01/06 13:05:03;;;;;;;0.82;0.70;;;;;;;;;;5030125;28;20111;-81
2023/01/06 13:07:35;;;;;;;0.80;0.68;;;;;;;;;;5030392;28;20126;-80
2023/01/06 13:10:07;;;;;;;2.15;1.00;;;;;;;;;;5039548;28;20029;-81
2023/01/06 13:12:52;;;;;;;1.00;0.90;;;;;;;;;;5029162;28;20038;-81
2023/01/06 13:15:24;;;;;;;1.05;0.73;;;;;;;;;;5032316;28;20152;-81
2023/01/06 13:17:55;;;;;;;2.10;0.95;;;;;;;;;;5029919;28;20025;-81
2023/01/06 13:20:25;;;;;;;1.30;0.80;;;;;;;;;;5030442;28;20022;-81
2023/01/06 13:23:00;;;;;;;0.88;0.80;;;;;;;;;;5028642;28;20037;-81
2023/01/06 13:25:44;;;;;;;0.77;0.70;;;;;;;;;;5027648;28;20492;-80
2023/01/06 13:28:14;;;;;;;1.38;0.70;;;;;;;;;;5028972;28;20775;-81
2023/01/06 13:30:56;;;;;;;1.08;0.80;;;;;;;;;;5037452;28;20021;-81
2023/01/06 13:33:40;;;;;;;0.80;0.80;;;;;;;;;;5037414;28;20453;-80
2023/01/06 13:36:06;;;;;;;1.17;0.73;;;;;;;;;;5030002;28;20049;-80
2023/01/06 13:38:51;;;;;;;2.40;0.90;;;;;;;;;;5029417;28;20029;-81
2023/01/06 13:41:19;;;;;;;1.13;0.75;;;;;;;;;;5029620;28;20067;-81
2023/01/06 13:43:47;;;;;;;1.98;0.80;;;;;;;;;;5039994;28;20045;-81
2023/01/06 13:46:14;;;;;;;2.35;0.63;;;;;;;;;;5029835;28;20116;-81
2023/01/06 13:48:42;;;;;;;1.30;0.52;;;;;;;;;;5029021;28;20477;-81
2023/01/06 13:51:13;;;;;;;0.73;0.73;;;;;;;;;;5028654;28;20496;-81
2023/01/06 13:53:44;;;;;;;1.00;0.60;;;;;;;;;;5029063;28;20029;-81
2023/01/06 13:56:13;;;;;;;0.50;0.50;;;;;;;;;;5027791;28;20030;-81
2023/01/06 13:58:40;;;;;;;0.75;0.75;;;;;;;;;;5029302;28;20473;-81
2023/01/06 14:01:06;;;;;;;0.60;0.52;;;;;;;;;;5029488;28;20156;-81
2023/01/06 14:03:32;;;;;;;0.98;0.70;;;;;;;;;;5032982;28;20108;-81
2023/01/06 14:05:59;;;;;;;0.60;0.60;;;;;;;;;;5029480;28;20036;-81
2023/01/06 14:08:26;;;;;;;1.08;0.70;;;;;;;;;;5029231;28;20068;-81
2023/01/06 14:10:57;;;;;;;0.60;0.60;;;;;;;;;;5028959;28;20037;-81
2023/01/06 14:13:31;;;;;;;0.50;0.50;;;;;;;;;;5027207;28;20056;-81
2023/01/06 14:16:00;;;;;;;1.65;0.50;;;;;;;;;;5036897;28;20098;-81
2023/01/06 14:18:37;;;;;;;0.38;0.38;;;;;;;;;;5028851;28;20090;-81
2023/01/06 14:21:04;;;;;;;0.55;0.50;;;;;;;;;;5029034;28;20095;-81
2023/01/06 14:23:31;;;;;;;1.38;0.80;;;;;;;;;;5015637;28;20033;-80
2023/01/06 14:25:57;;;;;;;0.80;0.60;;;;;;;;;;5031700;28;20021;-81
2023/01/06 14:28:25;;;;;;;1.00;0.75;;;;;;;;;;5027988;28;20396;-81
2023/01/06 14:31:11;;;;;;;0.50;0.50;;;;;;;;;;5034640;28;20431;-81
2023/01/06 14:33:38;;;;;;;0.63;0.55;;;;;;;;;;5038525;28;20030;-81
2023/01/06 14:36:14;;;;;;;0.60;0.60;;;;;;;;;;5026686;28;20629;-81
2023/01/06 14:38:47;;;;;;;1.25;0.73;;;;;;;;;;5028183;28;20491;-81
2023/01/06 14:41:20;;;;;;;0.60;0.60;;;;;;;;;;5026907;28;20120;-81
2023/01/06 14:43:52;;;;;;;1.05;0.70;;;;;;;;;;5028247;28;20396;-79
2023/01/06 14:46:29;;;;;;;0.50;0.50;;;;;;;;;;5029482;28;20133;-80
2023/01/06 14:48:59;;;;;;;0.63;0.60;;;;;;;;;;5024412;28;20385;-80
2023/01/06 14:51:26;;;;;;;1.02;0.60;;;;;;;;;;5024778;28;20044;-79
2023/01/06 14:54:02;;;;;;;0.45;0.45;;;;;;;;;;5031641;28;20400;-79
2023/01/06 14:56:29;;;;;;;0.73;0.60;;;;;;;;;;5026486;28;20029;-79
2023/01/06 14:59:02;;;;;;;0.95;0.60;;;;;;;;;;5027779;28;20064;-79
2023/01/06 15:01:31;;;;;;;1.58;0.80;;;;;;;;;;5027734;28;20503;-79
2023/01/06 15:03:58;;;;;;;0.50;0.50;;;;;;;;;;5024221;28;20033;-79